createdAt,value
2018-11-01T00:03:41.078Z,5.55
2018-11-01T00:09:36.066Z,5.23
2018-11-01T00:15:31.094Z,5.43
2018-11-01T00:21:26.080Z,4.95
2018-11-01T00:27:21.092Z,4.72
2018-11-01T00:33:16.077Z,3.05
2018-11-01T00:39:11.092Z,2.31
2018-11-01T00:45:06.102Z,1.74
2018-11-01T00:51:01.122Z,1.21
2018-11-01T00:56:56.103Z,2.56
2018-11-01T01:02:51.124Z,1.93
2018-11-01T01:08:46.115Z,1.82
2018-11-01T01:14:41.141Z,1.8
2018-11-01T01:20:36.113Z,2.05
2018-11-01T01:26:31.114Z,3.08
2018-11-01T01:32:26.158Z,2.29
2018-11-01T01:38:21.134Z,1.83
2018-11-01T01:44:16.107Z,1.7
2018-11-01T01:50:11.171Z,2.3
2018-11-01T01:56:06.122Z,2.67
2018-11-01T02:02:01.130Z,2.73
2018-11-01T02:07:56.128Z,2.73
2018-11-01T02:13:51.122Z,1.88
2018-11-01T02:19:46.235Z,2.69
2018-11-01T02:25:41.146Z,2.05
2018-11-01T02:31:36.186Z,1.93
2018-11-01T02:37:31.181Z,2.7
2018-11-01T02:43:26.161Z,2.2
2018-11-01T02:49:21.162Z,1.78
2018-11-01T02:55:16.150Z,1.75
2018-11-01T03:01:11.152Z,1.63
2018-11-01T03:07:06.167Z,2.27
2018-11-01T03:13:01.172Z,1.24
2018-11-01T03:18:56.202Z,3.06
2018-11-01T03:24:51.410Z,2.33
2018-11-01T03:30:47.418Z,2.42
2018-11-01T03:36:44.093Z,2.22
2018-11-01T03:42:36.238Z,1.8
2018-11-01T03:48:31.213Z,2.33
2018-11-01T03:54:26.197Z,1.66
2018-11-01T04:00:21.192Z,1.55
2018-11-01T04:06:16.197Z,2.17
2018-11-01T04:12:11.208Z,1.73
2018-11-01T04:18:06.226Z,1.89
2018-11-01T04:24:01.204Z,2.1
2018-11-01T04:29:56.198Z,1.96
2018-11-01T04:35:51.209Z,2.1
2018-11-01T04:41:46.223Z,2.29
2018-11-01T04:47:41.413Z,1.96
2018-11-01T04:53:36.300Z,1.83
2018-11-01T04:59:31.268Z,2.07
2018-11-01T05:05:26.260Z,1.63
2018-11-01T05:11:21.287Z,1.44
2018-11-01T05:17:16.243Z,1.43
2018-11-01T05:23:11.244Z,1.28
2018-11-01T05:29:06.248Z,1.05
2018-11-01T05:35:01.250Z,1.05
2018-11-01T05:40:56.281Z,1.16
2018-11-01T05:46:51.249Z,1.21
2018-11-01T05:52:46.284Z,1.65
2018-11-01T05:58:41.283Z,1.68
2018-11-01T06:04:36.292Z,2.14
2018-11-01T06:10:31.275Z,2.59
2018-11-01T06:16:26.306Z,1.8
2018-11-01T06:22:21.280Z,1.93
2018-11-01T06:28:16.308Z,2.17
2018-11-01T06:34:11.289Z,1.63
2018-11-01T06:40:06.294Z,1.58
2018-11-01T06:46:01.281Z,1.5
2018-11-01T06:51:56.303Z,1.2
2018-11-01T06:57:51.294Z,1.58
2018-11-01T07:03:46.349Z,1.13
2018-11-01T07:09:41.316Z,1.12
2018-11-01T07:15:36.321Z,1.29
2018-11-01T07:21:31.304Z,1.28
2018-11-01T07:27:26.351Z,1.2
2018-11-01T07:33:21.354Z,1.37
2018-11-01T07:39:16.385Z,1.6
2018-11-01T07:45:11.346Z,1.81
2018-11-01T07:51:06.329Z,1.74
2018-11-01T07:57:01.347Z,1.24
2018-11-01T08:02:56.330Z,1.52
2018-11-01T08:08:51.384Z,1.46
2018-11-01T08:14:46.340Z,1.47
2018-11-01T08:20:41.465Z,1.45
2018-11-01T08:26:36.400Z,1.42
2018-11-01T08:32:31.368Z,1.77
2018-11-01T08:38:26.350Z,1.6
2018-11-01T08:44:21.336Z,1.58
2018-11-01T08:50:16.354Z,1.55
2018-11-01T08:56:11.414Z,1.91
2018-11-01T09:02:06.451Z,1.52
2018-11-01T09:08:01.454Z,2.14
2018-11-01T09:13:56.386Z,1.94
2018-11-01T09:19:51.368Z,1.9
2018-11-01T09:25:46.408Z,2.19
2018-11-01T09:31:41.372Z,2.03
2018-11-01T09:37:36.480Z,2.19
2018-11-01T09:43:31.387Z,3.22
2018-11-01T09:49:26.381Z,3.53
2018-11-01T09:55:21.417Z,3.64
2018-11-01T10:01:16.492Z,3.65
2018-11-01T10:07:11.391Z,3.4
2018-11-01T10:13:06.393Z,3.87
2018-11-01T10:19:01.410Z,3.38
2018-11-01T10:24:56.390Z,3.84
2018-11-01T10:30:51.405Z,4.74
2018-11-01T10:36:46.395Z,5.03
2018-11-01T10:42:41.480Z,5.29
2018-11-01T10:48:36.422Z,5.82
2018-11-01T10:54:31.463Z,5.6
2018-11-01T11:00:26.602Z,5.8
2018-11-01T11:06:21.422Z,5.16
2018-11-01T11:12:16.485Z,9.44
2018-11-01T11:18:11.424Z,6.18
2018-11-01T11:24:06.436Z,7.51
2018-11-01T11:30:01.593Z,10.28
2018-11-01T11:35:56.583Z,12.54
2018-11-01T11:41:51.488Z,9.38
2018-11-01T11:47:46.496Z,5
2018-11-01T11:53:41.476Z,3.39
2018-11-01T11:59:36.482Z,3.35
2018-11-01T12:05:31.572Z,4.21
2018-11-01T12:11:26.473Z,5.27
2018-11-01T12:17:21.461Z,5.79
2018-11-01T12:23:16.459Z,5.51
2018-11-01T12:29:11.466Z,5.01
2018-11-01T12:35:06.503Z,3.26
2018-11-01T12:41:01.465Z,3.5
2018-11-01T12:46:56.522Z,4.23
2018-11-01T12:52:51.472Z,3.54
2018-11-01T12:58:46.521Z,4.29
2018-11-01T13:04:41.482Z,4.94
2018-11-01T13:10:36.584Z,4.92
2018-11-01T13:16:31.512Z,4.32
2018-11-01T13:22:26.492Z,3.74
2018-11-01T13:28:21.512Z,2.62
2018-11-01T13:34:16.524Z,3.27
2018-11-01T13:40:11.799Z,3.32
2018-11-01T13:46:06.509Z,2.51
2018-11-01T13:52:01.585Z,4.41
2018-11-01T13:57:56.552Z,2.29
2018-11-01T14:03:51.562Z,3.58
2018-11-01T14:09:46.557Z,1.63
2018-11-01T14:15:41.718Z,1.64
2018-11-01T14:21:36.572Z,1.83
2018-11-01T14:27:31.536Z,2.03
2018-11-01T14:33:26.557Z,4.48
2018-11-01T14:39:21.594Z,2.09
2018-11-01T14:45:16.569Z,4.52
2018-11-01T14:51:11.564Z,4.23
2018-11-01T14:57:07.602Z,2.87
2018-11-01T15:03:01.572Z,2.36
2018-11-01T15:08:56.593Z,1.69
2018-11-01T15:14:51.713Z,1.9
2018-11-01T15:20:46.672Z,1.56
2018-11-01T15:26:41.584Z,1.86
2018-11-01T15:32:36.553Z,2.22
2018-11-01T15:38:31.593Z,1.78
2018-11-01T15:44:26.575Z,3.35
2018-11-01T15:50:21.576Z,3.25
2018-11-01T15:56:16.634Z,3.33
2018-11-01T16:02:11.636Z,4.8
2018-11-01T16:08:06.612Z,4.19
2018-11-01T16:14:01.600Z,3.53
2018-11-01T16:19:56.820Z,3.8
2018-11-01T16:25:51.588Z,4.28
2018-11-01T16:31:46.627Z,7.59
2018-11-01T16:37:41.663Z,8.5
2018-11-01T16:43:36.629Z,4.46
2018-11-01T16:49:31.606Z,4.65
2018-11-01T16:55:26.608Z,3.75
2018-11-01T17:01:21.619Z,7.93
2018-11-01T17:07:16.623Z,8.72
2018-11-01T17:13:11.640Z,9.03
2018-11-01T17:19:06.623Z,10.68
2018-11-01T17:25:01.775Z,8.1
2018-11-01T17:30:56.644Z,7.78
2018-11-01T17:36:51.622Z,9.18
2018-11-01T17:42:46.635Z,10.86
2018-11-01T17:48:41.689Z,10.47
2018-11-01T17:54:36.666Z,13.49
2018-11-01T18:00:31.676Z,10.88
2018-11-01T18:06:26.633Z,12.36
2018-11-01T18:12:21.672Z,20.53
2018-11-01T18:18:16.665Z,18.36
2018-11-01T18:24:11.653Z,16.09
2018-11-01T18:30:06.693Z,12.5
2018-11-01T18:36:01.673Z,13.19
2018-11-01T18:41:56.669Z,9.55
2018-11-01T18:47:51.695Z,8.68
2018-11-01T18:53:46.698Z,7.6
2018-11-01T18:59:41.703Z,13.75
2018-11-01T19:05:36.685Z,15.7
2018-11-01T19:11:31.719Z,20.88
2018-11-01T19:17:26.706Z,9.97
2018-11-01T19:23:21.694Z,10.45
2018-11-01T19:29:16.715Z,21.45
2018-11-01T19:35:11.697Z,23.7
2018-11-01T19:41:06.697Z,15.61
2018-11-01T19:47:01.709Z,8.46
2018-11-01T19:52:56.730Z,11.14
2018-11-01T19:58:51.754Z,7.43
2018-11-01T20:04:46.707Z,9.81
2018-11-01T20:10:41.722Z,13.12
2018-11-01T20:16:36.742Z,13.98
2018-11-01T20:22:31.729Z,14.63
2018-11-01T20:28:26.718Z,16.59
2018-11-01T20:34:21.752Z,23.49
2018-11-01T20:40:16.754Z,18.66
2018-11-01T20:46:11.776Z,24.89
2018-11-01T20:52:06.754Z,12.07
2018-11-01T20:58:01.777Z,20.1
2018-11-01T21:03:56.745Z,16.7
2018-11-01T21:09:51.737Z,11.01
2018-11-01T21:15:46.798Z,10.64
2018-11-01T21:21:41.756Z,9.6
2018-11-01T21:27:36.760Z,12.27
2018-11-01T21:33:31.770Z,16.71
2018-11-01T21:39:26.771Z,15.48
2018-11-01T21:45:21.774Z,15.03
2018-11-01T21:51:16.816Z,12.44
2018-11-01T21:57:11.777Z,12.13
2018-11-01T22:03:06.765Z,9.8
2018-11-01T22:09:01.793Z,15.45
2018-11-01T22:14:56.786Z,11.4
2018-11-01T22:20:51.785Z,10.27
2018-11-01T22:26:46.779Z,10.93
2018-11-01T22:32:41.782Z,10.1
2018-11-01T22:38:36.835Z,9.94
2018-11-01T22:44:31.834Z,10.52
2018-11-01T22:50:26.789Z,11.24
2018-11-01T22:56:21.805Z,10.67
2018-11-01T23:02:16.876Z,10.17
2018-11-01T23:08:11.817Z,12
2018-11-01T23:14:06.813Z,11.59
2018-11-01T23:20:01.828Z,12.29
2018-11-01T23:25:56.821Z,11.85
2018-11-01T23:31:51.830Z,14.16
2018-11-01T23:37:46.857Z,12.82
2018-11-01T23:43:41.852Z,12.3
2018-11-01T23:49:36.829Z,11.93
2018-11-01T23:55:31.838Z,11.87
